Time;durP1;ratioP1;P1;durP2;ratioP2;P2;SDS_P1;SDS_P2;PMS_P1;PMS_P2;Temp;Humidity;BMP_temperature;BMP_pressure;BME280_temperature;BME280_humidity;BME280_pressure;Samples;Min_cycle;Max_cycle;Signal;HPM_P1;HPM_P2
2022/11/25 00:01:56;;;;;;;0.70;0.70;;;;;;;8.22;100.00;99821.38;5050035;28;20199;-76
2022/11/25 00:04:23;;;;;;;0.70;0.70;;;;;;;8.25;100.00;99814.56;5050010;28;20203;-76
2022/11/25 00:06:50;;;;;;;0.77;0.77;;;;;;;8.28;100.00;99817.25;5049829;28;20333;-75
2022/11/25 00:09:17;;;;;;;0.70;0.70;;;;;;;8.23;100.00;99824.00;5049875;28;20636;-75
2022/11/25 00:11:43;;;;;;;0.60;0.60;;;;;;;8.17;100.00;99810.13;5049549;28;20211;-78
2022/11/25 00:14:14;;;;;;;1.03;1.03;;;;;;;8.33;100.00;99823.38;5049814;28;20591;-76
2022/11/25 00:16:41;;;;;;;0.90;0.90;;;;;;;8.33;100.00;99828.56;5031825;28;20198;-76
2022/11/25 00:19:10;;;;;;;0.60;0.60;;;;;;;8.30;100.00;99820.75;5053341;28;20202;-76
2022/11/25 00:21:37;;;;;;;0.80;0.80;;;;;;;8.25;100.00;99819.75;5053250;28;20223;-76
2022/11/25 00:24:06;;;;;;;0.57;0.57;;;;;;;8.27;100.00;99819.78;5053425;28;20231;-77
2022/11/25 00:26:35;;;;;;;0.60;0.60;;;;;;;8.17;100.00;99795.47;5053141;28;20620;-77
2022/11/25 00:29:04;;;;;;;0.57;0.57;;;;;;;8.29;100.00;99813.81;5053539;28;20210;-77
2022/11/25 00:31:34;;;;;;;1.00;1.00;;;;;;;8.24;100.00;99824.88;5053353;28;20203;-69
2022/11/25 00:34:01;;;;;;;0.90;0.90;;;;;;;8.19;100.00;99818.75;5053140;28;20199;-75
2022/11/25 00:36:30;;;;;;;0.60;0.60;;;;;;;8.16;100.00;99819.56;5053345;28;20200;-76
2022/11/25 00:38:58;;;;;;;0.80;0.80;;;;;;;8.15;100.00;99806.63;5052841;28;20199;-76
2022/11/25 00:46:58;;;;;;;0.60;0.60;;;;;;;8.12;100.00;99814.31;5052891;28;20248;-76
2022/11/25 00:49:25;;;;;;;0.60;0.60;;;;;;;8.07;100.00;99810.75;5052739;28;20199;-76
2022/11/25 00:51:52;;;;;;;0.57;0.57;;;;;;;8.06;100.00;99819.34;5053098;28;20585;-76
2022/11/25 00:54:19;;;;;;;0.80;0.80;;;;;;;7.97;100.00;99807.09;5052815;28;20191;-76
2022/11/25 00:56:46;;;;;;;0.80;0.80;;;;;;;7.99;100.00;99810.56;5053314;28;20204;-76
2022/11/25 00:59:12;;;;;;;0.70;0.70;;;;;;;7.96;100.00;99807.94;5052629;28;20200;-76
2022/11/25 01:01:40;;;;;;;0.70;0.70;;;;;;;7.89;100.00;99800.91;5052678;28;20687;-76
2022/11/25 01:04:08;;;;;;;0.70;0.70;;;;;;;7.78;100.00;99779.16;5052625;28;20230;-76
2022/11/25 01:06:35;;;;;;;0.83;0.83;;;;;;;7.93;100.00;99813.03;5052862;28;20199;-76
2022/11/25 01:09:02;;;;;;;0.77;0.77;;;;;;;7.90;100.00;99813.84;5052286;28;20234;-77
2022/11/25 01:11:32;;;;;;;0.70;0.70;;;;;;;7.99;100.00;99815.75;5052825;28;20683;-76
2022/11/25 01:13:59;;;;;;;0.70;0.70;;;;;;;7.79;100.00;99786.94;5052128;28;20694;-76
2022/11/25 01:16:26;;;;;;;0.70;0.70;;;;;;;7.97;100.00;99827.75;5017351;28;20265;-76
2022/11/25 01:18:53;;;;;;;0.70;0.70;;;;;;;7.96;100.00;99815.69;5052186;28;20200;-76
2022/11/25 01:21:23;;;;;;;0.60;0.60;;;;;;;7.94;100.00;99822.53;5052478;28;20195;-76
2022/11/25 01:23:50;;;;;;;6.23;2.67;;;;;;;7.48;100.00;99739.00;5052214;28;20219;-77
2022/11/25 01:26:20;;;;;;;0.73;0.73;;;;;;;7.91;100.00;99802.72;5052293;28;20204;-76
2022/11/25 01:28:47;;;;;;;0.57;0.57;;;;;;;8.08;100.00;99820.25;5051910;28;20195;-74
2022/11/25 01:31:16;;;;;;;0.43;0.43;;;;;;;8.05;100.00;99825.34;5052385;28;20196;-76
2022/11/25 01:33:43;;;;;;;0.60;0.60;;;;;;;8.01;100.00;99829.56;5052104;28;20203;-76
2022/11/25 01:36:12;;;;;;;0.70;0.70;;;;;;;7.78;100.00;99794.66;5052087;28;20195;-77
2022/11/25 01:38:40;;;;;;;0.80;0.80;;;;;;;8.03;100.00;99829.59;5016987;28;20203;-77
2022/11/25 01:41:08;;;;;;;0.70;0.70;;;;;;;8.00;100.00;99825.25;5052058;28;20198;-77
2022/11/25 01:43:35;;;;;;;0.63;0.63;;;;;;;8.00;100.00;99822.66;5033321;28;20627;-77
2022/11/25 01:46:10;;;;;;;0.60;0.60;;;;;;;8.14;100.00;99835.84;5051812;28;20203;-77
2022/11/25 01:48:42;;;;;;;0.80;0.80;;;;;;;8.17;100.00;99835.94;5016748;28;20208;-77
2022/11/25 01:51:21;;;;;;;0.60;0.60;;;;;;;8.13;100.00;99829.84;5051660;28;20296;-76
2022/11/25 01:53:50;;;;;;;0.60;0.60;;;;;;;8.14;100.00;99839.31;5051566;28;20207;-76
2022/11/25 01:56:17;;;;;;;1.13;1.13;;;;;;;7.66;100.00;99746.25;5051819;28;20198;-76
2022/11/25 01:58:46;;;;;;;0.60;0.60;;;;;;;8.14;100.00;99846.16;5051534;28;20663;-75
2022/11/25 02:01:14;;;;;;;0.70;0.70;;;;;;;8.11;100.00;99841.81;5051157;28;20211;-75
2022/11/25 02:03:45;;;;;;;0.63;0.63;;;;;;;8.16;100.00;99855.72;5051421;28;20231;-76
2022/11/25 02:06:17;;;;;;;0.73;0.73;;;;;;;8.17;100.00;99848.84;5051289;28;20203;-75
2022/11/25 02:08:48;;;;;;;2.37;2.27;;;;;;;8.11;100.00;99854.75;5050959;28;20637;-76
2022/11/25 02:11:18;;;;;;;0.53;0.53;;;;;;;8.17;100.00;99849.69;5051287;28;20199;-76
2022/11/25 02:13:47;;;;;;;0.70;0.70;;;;;;;8.12;100.00;99843.59;5051135;28;20195;-76
2022/11/25 02:16:14;;;;;;;0.67;0.67;;;;;;;8.07;100.00;99854.63;5050773;28;21144;-77
2022/11/25 02:18:41;;;;;;;3.93;1.33;;;;;;;7.98;100.00;99829.50;5051534;28;20199;-77
2022/11/25 02:21:08;;;;;;;0.90;0.90;;;;;;;7.95;100.00;99838.03;5050933;28;20742;-77
2022/11/25 02:23:40;;;;;;;1.43;0.97;;;;;;;8.08;100.00;99849.50;5051162;28;20706;-77
2022/11/25 02:26:09;;;;;;;0.60;0.60;;;;;;;8.09;100.00;99864.19;5051421;28;20200;-77
2022/11/25 02:28:36;;;;;;;0.80;0.80;;;;;;;7.89;100.00;99843.09;5051112;28;20195;-77
2022/11/25 02:31:03;;;;;;;0.60;0.60;;;;;;;7.92;100.00;99855.16;5051232;28;20195;-75
2022/11/25 02:33:30;;;;;;;0.97;0.97;;;;;;;8.02;100.00;99877.78;5051132;28;20199;-77
2022/11/25 02:35:58;;;;;;;0.60;0.60;;;;;;;8.03;100.00;99879.50;5015845;28;20200;-76
2022/11/25 02:38:36;;;;;;;0.43;0.43;;;;;;;8.12;100.00;99877.16;5050890;28;20692;-76
2022/11/25 02:41:07;;;;;;;0.83;0.83;;;;;;;8.01;100.00;99864.84;5050297;28;20658;-76
2022/11/25 02:43:35;;;;;;;0.80;0.80;;;;;;;7.55;100.00;99786.44;5050652;28;20234;-75
2022/11/25 02:46:05;;;;;;;0.70;0.70;;;;;;;8.14;100.00;99878.03;5050423;28;20207;-77
2022/11/25 02:48:33;;;;;;;0.77;0.77;;;;;;;8.13;100.00;99883.19;5016156;28;20195;-76
2022/11/25 02:51:00;;;;;;;0.63;0.63;;;;;;;8.15;100.00;99884.97;5050906;28;20207;-76
2022/11/25 02:53:27;;;;;;;0.70;0.70;;;;;;;8.12;100.00;99884.91;5050468;28;20591;-76
2022/11/25 02:55:54;;;;;;;0.63;0.63;;;;;;;8.09;100.00;99890.00;5050633;28;20203;-77
2022/11/25 02:58:21;;;;;;;0.70;0.70;;;;;;;8.13;100.00;99886.66;5050502;28;20257;-77
2022/11/25 03:00:49;;;;;;;1.00;1.00;;;;;;;8.13;100.00;99886.66;5050543;28;20199;-77
2022/11/25 03:03:16;;;;;;;1.07;0.97;;;;;;;8.27;100.00;99897.25;5050348;28;20223;-77
2022/11/25 03:05:43;;;;;;;0.60;0.60;;;;;;;8.28;100.00;99907.63;5050705;28;20200;-77
2022/11/25 03:08:11;;;;;;;0.80;0.80;;;;;;;8.29;100.00;99905.94;5050267;28;20199;-77
2022/11/25 03:10:39;;;;;;;0.90;0.90;;;;;;;8.31;100.00;99907.69;5050923;28;20243;-77
2022/11/25 03:13:07;;;;;;;0.60;0.60;;;;;;;8.34;100.00;99905.22;5050471;28;20203;-77
2022/11/25 03:15:35;;;;;;;0.80;0.80;;;;;;;8.31;100.00;99905.13;5050741;28;20195;-77
2022/11/25 03:18:04;;;;;;;0.63;0.63;;;;;;;8.34;100.00;99906.91;5050521;28;20202;-76
2022/11/25 03:20:32;;;;;;;0.70;0.70;;;;;;;8.28;100.00;99902.47;5050366;28;20199;-76
2022/11/25 03:22:58;;;;;;;0.80;0.80;;;;;;;8.29;100.00;99911.97;5050574;28;20269;-76
2022/11/25 03:25:25;;;;;;;0.83;0.83;;;;;;;8.29;100.00;99911.97;5050266;28;20196;-76
2022/11/25 03:27:52;;;;;;;0.60;0.60;;;;;;;8.19;100.00;99897.09;5050263;28;20199;-77
2022/11/25 03:30:21;;;;;;;0.80;0.80;;;;;;;8.25;100.00;99917.88;5049857;28;20565;-76
2022/11/25 03:32:48;;;;;;;0.80;0.80;;;;;;;8.20;100.00;99910.88;5050279;28;20587;-76
2022/11/25 03:35:17;;;;;;;0.60;0.60;;;;;;;8.13;100.00;99886.66;5050240;28;20215;-76
2022/11/25 03:37:44;;;;;;;0.60;0.60;;;;;;;8.14;100.00;99902.97;5050384;28;20199;-78
2022/11/25 03:40:13;;;;;;;0.97;0.97;;;;;;;8.18;100.00;99915.13;5049983;28;20195;-77
2022/11/25 03:42:39;;;;;;;0.63;0.63;;;;;;;8.20;100.00;99916.94;5050307;28;20202;-76
2022/11/25 03:45:07;;;;;;;0.83;0.83;;;;;;;8.20;100.00;99918.63;5014863;28;20227;-77
2022/11/25 03:47:34;;;;;;;0.60;0.60;;;;;;;7.66;100.00;99841.72;5001437;28;20203;-77
2022/11/25 03:50:01;;;;;;;0.80;0.80;;;;;;;8.08;100.00;99924.38;5030380;28;20200;-76
2022/11/25 03:52:29;;;;;;;0.70;0.70;;;;;;;8.04;100.00;99929.44;5032052;28;20206;-76
2022/11/25 03:54:56;;;;;;;0.67;0.67;;;;;;;8.05;100.00;99931.19;5033835;28;20659;-76
2022/11/25 03:57:23;;;;;;;0.80;0.80;;;;;;;8.07;100.00;99927.81;5033769;28;20203;-77
2022/11/25 03:59:50;;;;;;;11.23;1.37;;;;;;;8.01;100.00;99927.66;5045854;28;20644;-77
2022/11/25 04:02:17;;;;;;;13.47;2.93;;;;;;;7.94;100.00;99933.53;5053310;28;20265;-74
2022/11/25 04:04:43;;;;;;;0.90;0.90;;;;;;;7.95;100.00;99922.38;5053465;28;20231;-74
2022/11/25 04:07:10;;;;;;;0.70;0.70;;;;;;;8.07;100.00;99926.91;5053090;28;20444;-76
2022/11/25 04:09:38;;;;;;;0.70;0.70;;;;;;;8.07;100.00;99937.25;5053539;28;20722;-77
